sensor_id;sensor_type;location;lat;lon;timestamp;P1;durP1;ratioP1;P2;durP2;ratioP2
22388;SDS011;11362;48.102;11.620;2023-06-22T00:00:53;4.60;;;2.80;;
22388;SDS011;11362;48.102;11.620;2023-06-22T00:03:19;2.70;;;2.50;;
22388;SDS011;11362;48.102;11.620;2023-06-22T00:05:47;3.27;;;2.80;;
22388;SDS011;11362;48.102;11.620;2023-06-22T00:08:13;2.97;;;2.40;;
22388;SDS011;11362;48.102;11.620;2023-06-22T00:10:38;4.83;;;2.87;;
22388;SDS011;11362;48.102;11.620;2023-06-22T00:13:05;4.30;;;2.87;;
22388;SDS011;11362;48.102;11.620;2023-06-22T00:15:31;2.73;;;2.37;;
22388;SDS011;11362;48.102;11.620;2023-06-22T00:17:56;3.27;;;2.90;;
22388;SDS011;11362;48.102;11.620;2023-06-22T00:20:22;4.70;;;2.37;;
22388;SDS011;11362;48.102;11.620;2023-06-22T00:22:47;4.00;;;2.60;;
22388;SDS011;11362;48.102;11.620;2023-06-22T00:25:12;3.13;;;2.50;;
22388;SDS011;11362;48.102;11.620;2023-06-22T00:27:38;3.60;;;2.83;;
22388;SDS011;11362;48.102;11.620;2023-06-22T00:30:03;3.07;;;2.23;;
22388;SDS011;11362;48.102;11.620;2023-06-22T00:32:29;5.87;;;3.00;;
22388;SDS011;11362;48.102;11.620;2023-06-22T00:34:54;2.80;;;2.60;;
22388;SDS011;11362;48.102;11.620;2023-06-22T00:37:19;3.20;;;2.93;;
22388;SDS011;11362;48.102;11.620;2023-06-22T00:39:45;4.10;;;2.50;;
22388;SDS011;11362;48.102;11.620;2023-06-22T00:42:10;3.10;;;2.40;;
22388;SDS011;11362;48.102;11.620;2023-06-22T00:44:35;4.30;;;2.53;;
22388;SDS011;11362;48.102;11.620;2023-06-22T00:47:01;2.77;;;2.40;;
22388;SDS011;11362;48.102;11.620;2023-06-22T00:49:28;5.70;;;2.77;;
22388;SDS011;11362;48.102;11.620;2023-06-22T00:51:53;3.73;;;2.80;;
22388;SDS011;11362;48.102;11.620;2023-06-22T00:54:19;2.77;;;2.57;;
22388;SDS011;11362;48.102;11.620;2023-06-22T00:56:45;2.67;;;2.47;;
22388;SDS011;11362;48.102;11.620;2023-06-22T00:59:11;4.17;;;2.57;;
22388;SDS011;11362;48.102;11.620;2023-06-22T01:01:36;2.40;;;2.23;;
22388;SDS011;11362;48.102;11.620;2023-06-22T01:04:01;4.20;;;2.50;;
22388;SDS011;11362;48.102;11.620;2023-06-22T01:06:29;3.93;;;2.93;;
22388;SDS011;11362;48.102;11.620;2023-06-22T01:09:02;4.97;;;2.30;;
22388;SDS011;11362;48.102;11.620;2023-06-22T01:11:36;2.73;;;2.50;;
22388;SDS011;11362;48.102;11.620;2023-06-22T01:14:07;4.03;;;2.90;;
22388;SDS011;11362;48.102;11.620;2023-06-22T01:16:40;3.87;;;2.60;;
22388;SDS011;11362;48.102;11.620;2023-06-22T01:19:54;3.63;;;2.40;;
22388;SDS011;11362;48.102;11.620;2023-06-22T01:22:03;2.70;;;2.50;;
22388;SDS011;11362;48.102;11.620;2023-06-22T01:29:58;3.87;;;2.40;;
22388;SDS011;11362;48.102;11.620;2023-06-22T01:32:24;3.70;;;2.57;;
22388;SDS011;11362;48.102;11.620;2023-06-22T01:34:50;3.67;;;2.40;;
22388;SDS011;11362;48.102;11.620;2023-06-22T01:37:15;3.80;;;2.67;;
22388;SDS011;11362;48.102;11.620;2023-06-22T01:39:41;2.77;;;2.57;;
22388;SDS011;11362;48.102;11.620;2023-06-22T01:42:07;3.73;;;3.00;;
22388;SDS011;11362;48.102;11.620;2023-06-22T01:44:33;2.67;;;2.37;;
22388;SDS011;11362;48.102;11.620;2023-06-22T01:46:59;3.90;;;2.73;;
22388;SDS011;11362;48.102;11.620;2023-06-22T01:49:25;3.13;;;2.70;;
22388;SDS011;11362;48.102;11.620;2023-06-22T01:51:50;3.17;;;2.87;;
22388;SDS011;11362;48.102;11.620;2023-06-22T01:54:15;5.73;;;3.27;;
22388;SDS011;11362;48.102;11.620;2023-06-22T01:56:41;2.73;;;2.53;;
22388;SDS011;11362;48.102;11.620;2023-06-22T02:01:41;4.07;;;2.73;;
22388;SDS011;11362;48.102;11.620;2023-06-22T02:04:11;5.40;;;3.20;;
22388;SDS011;11362;48.102;11.620;2023-06-22T02:06:42;3.67;;;2.97;;
22388;SDS011;11362;48.102;11.620;2023-06-22T02:09:12;2.90;;;2.60;;
22388;SDS011;11362;48.102;11.620;2023-06-22T02:11:42;3.07;;;2.67;;
22388;SDS011;11362;48.102;11.620;2023-06-22T02:14:10;4.40;;;2.93;;
22388;SDS011;11362;48.102;11.620;2023-06-22T02:16:37;4.17;;;3.13;;
22388;SDS011;11362;48.102;11.620;2023-06-22T02:19:03;5.73;;;3.10;;
22388;SDS011;11362;48.102;11.620;2023-06-22T02:21:29;4.63;;;2.60;;
22388;SDS011;11362;48.102;11.620;2023-06-22T02:23:54;2.90;;;2.60;;
22388;SDS011;11362;48.102;11.620;2023-06-22T02:26:20;3.20;;;2.97;;
22388;SDS011;11362;48.102;11.620;2023-06-22T02:28:45;3.20;;;2.90;;
22388;SDS011;11362;48.102;11.620;2023-06-22T02:31:10;3.50;;;3.03;;
22388;SDS011;11362;48.102;11.620;2023-06-22T02:33:36;5.53;;;3.77;;
22388;SDS011;11362;48.102;11.620;2023-06-22T02:36:01;4.70;;;3.37;;
22388;SDS011;11362;48.102;11.620;2023-06-22T02:38:27;3.47;;;3.03;;
22388;SDS011;11362;48.102;11.620;2023-06-22T02:40:52;4.37;;;2.97;;
22388;SDS011;11362;48.102;11.620;2023-06-22T02:43:17;3.13;;;2.80;;
22388;SDS011;11362;48.102;11.620;2023-06-22T02:45:42;2.93;;;2.73;;
22388;SDS011;11362;48.102;11.620;2023-06-22T02:48:08;5.90;;;3.53;;
22388;SDS011;11362;48.102;11.620;2023-06-22T02:50:33;3.70;;;3.40;;
22388;SDS011;11362;48.102;11.620;2023-06-22T02:52:58;3.73;;;2.97;;
22388;SDS011;11362;48.102;11.620;2023-06-22T02:55:24;4.13;;;3.53;;
22388;SDS011;11362;48.102;11.620;2023-06-22T02:57:49;5.10;;;3.27;;
22388;SDS011;11362;48.102;11.620;2023-06-22T03:00:14;4.30;;;3.13;;
22388;SDS011;11362;48.102;11.620;2023-06-22T03:02:40;4.30;;;3.73;;
22388;SDS011;11362;48.102;11.620;2023-06-22T03:05:05;4.43;;;3.30;;
22388;SDS011;11362;48.102;11.620;2023-06-22T03:07:31;7.07;;;3.17;;
22388;SDS011;11362;48.102;11.620;2023-06-22T03:09:56;4.67;;;3.10;;
22388;SDS011;11362;48.102;11.620;2023-06-22T03:12:21;4.50;;;3.30;;
22388;SDS011;11362;48.102;11.620;2023-06-22T03:14:46;4.80;;;3.13;;
22388;SDS011;11362;48.102;11.620;2023-06-22T03:17:12;4.13;;;3.23;;
22388;SDS011;11362;48.102;11.620;2023-06-22T03:19:37;3.90;;;3.50;;
22388;SDS011;11362;48.102;11.620;2023-06-22T03:22:02;5.17;;;3.20;;
22388;SDS011;11362;48.102;11.620;2023-06-22T03:24:28;4.43;;;3.37;;
22388;SDS011;11362;48.102;11.620;2023-06-22T03:26:53;5.03;;;3.10;;
22388;SDS011;11362;48.102;11.620;2023-06-22T03:29:19;4.27;;;3.30;;
22388;SDS011;11362;48.102;11.620;2023-06-22T03:31:44;6.60;;;3.37;;
22388;SDS011;11362;48.102;11.620;2023-06-22T03:34:09;4.30;;;3.13;;
22388;SDS011;11362;48.102;11.620;2023-06-22T03:36:34;3.57;;;3.20;;
22388;SDS011;11362;48.102;11.620;2023-06-22T03:39:00;5.10;;;3.50;;
22388;SDS011;11362;48.102;11.620;2023-06-22T03:41:25;3.83;;;3.33;;
22388;SDS011;11362;48.102;11.620;2023-06-22T03:43:50;4.73;;;3.50;;
22388;SDS011;11362;48.102;11.620;2023-06-22T03:46:15;3.60;;;3.23;;
22388;SDS011;11362;48.102;11.620;2023-06-22T03:48:41;3.80;;;3.43;;
22388;SDS011;11362;48.102;11.620;2023-06-22T03:51:06;4.23;;;3.67;;
22388;SDS011;11362;48.102;11.620;2023-06-22T03:53:31;3.90;;;3.50;;
22388;SDS011;11362;48.102;11.620;2023-06-22T03:55:57;4.90;;;3.40;;
22388;SDS011;11362;48.102;11.620;2023-06-22T03:58:22;3.77;;;3.43;;
22388;SDS011;11362;48.102;11.620;2023-06-22T04:00:48;4.77;;;3.70;;
22388;SDS011;11362;48.102;11.620;2023-06-22T04:03:15;3.90;;;3.03;;
22388;SDS011;11362;48.102;11.620;2023-06-22T04:05:41;3.83;;;3.30;;
22388;SDS011;11362;48.102;11.620;2023-06-22T04:08:07;4.77;;;3.60;;
22388;SDS011;11362;48.102;11.620;2023-06-22T04:10:32;4.63;;;3.30;;
22388;SDS011;11362;48.102;11.620;2023-06-22T04:12:58;3.73;;;3.10;;
22388;SDS011;11362;48.102;11.620;2023-06-22T04:15:23;6.43;;;4.40;;
22388;SDS011;11362;48.102;11.620;2023-06-22T04:17:48;5.77;;;3.70;;
22388;SDS011;11362;48.102;11.620;2023-06-22T04:20:14;4.10;;;3.53;;
22388;SDS011;11362;48.102;11.620;2023-06-22T04:22:39;3.67;;;3.30;;
22388;SDS011;11362;48.102;11.620;2023-06-22T04:25:05;4.00;;;3.60;;
22388;SDS011;11362;48.102;11.620;2023-06-22T04:27:31;3.70;;;3.40;;
22388;SDS011;11362;48.102;11.620;2023-06-22T04:29:57;4.83;;;3.80;;
22388;SDS011;11362;48.102;11.620;2023-06-22T04:32:22;3.90;;;3.33;;
22388;SDS011;11362;48.102;11.620;2023-06-22T04:34:47;4.17;;;3.53;;
22388;SDS011;11362;48.102;11.620;2023-06-22T04:37:12;5.63;;;3.77;;
22388;SDS011;11362;48.102;11.620;2023-06-22T04:39:38;6.83;;;4.03;;
22388;SDS011;11362;48.102;11.620;2023-06-22T04:42:03;5.37;;;3.50;;
22388;SDS011;11362;48.102;11.620;2023-06-22T04:44:29;4.70;;;3.50;;
22388;SDS011;11362;48.102;11.620;2023-06-22T04:46:55;4.30;;;3.83;;
22388;SDS011;11362;48.102;11.620;2023-06-22T04:49:21;5.90;;;4.00;;
22388;SDS011;11362;48.102;11.620;2023-06-22T04:51:46;5.13;;;4.03;;
22388;SDS011;11362;48.102;11.620;2023-06-22T04:54:12;6.53;;;4.17;;
22388;SDS011;11362;48.102;11.620;2023-06-22T04:56:37;6.33;;;4.00;;
22388;SDS011;11362;48.102;11.620;2023-06-22T04:59:03;4.97;;;3.63;;
22388;SDS011;11362;48.102;11.620;2023-06-22T05:01:28;5.33;;;3.40;;
22388;SDS011;11362;48.102;11.620;2023-06-22T05:03:54;4.43;;;3.53;;
22388;SDS011;11362;48.102;11.620;2023-06-22T05:06:19;6.37;;;4.23;;
22388;SDS011;11362;48.102;11.620;2023-06-22T05:08:44;5.13;;;3.60;;
22388;SDS011;11362;48.102;11.620;2023-06-22T05:11:09;3.67;;;3.37;;
22388;SDS011;11362;48.102;11.620;2023-06-22T05:13:35;6.27;;;4.00;;
22388;SDS011;11362;48.102;11.620;2023-06-22T05:16:00;4.57;;;4.17;;
22388;SDS011;11362;48.102;11.620;2023-06-22T05:18:25;5.53;;;4.20;;
22388;SDS011;11362;48.102;11.620;2023-06-22T05:20:51;4.17;;;3.77;;
22388;SDS011;11362;48.102;11.620;2023-06-22T05:23:16;7.00;;;3.90;;
22388;SDS011;11362;48.102;11.620;2023-06-22T05:25:41;6.73;;;4.07;;
22388;SDS011;11362;48.102;11.620;2023-06-22T05:28:06;5.20;;;4.27;;
22388;SDS011;11362;48.102;11.620;2023-06-22T05:30:32;5.53;;;3.93;;
22388;SDS011;11362;48.102;11.620;2023-06-22T05:32:57;4.13;;;3.70;;
22388;SDS011;11362;48.102;11.620;2023-06-22T05:35:22;4.87;;;4.37;;
22388;SDS011;11362;48.102;11.620;2023-06-22T05:37:47;4.50;;;4.10;;
22388;SDS011;11362;48.102;11.620;2023-06-22T05:40:13;5.43;;;3.90;;
22388;SDS011;11362;48.102;11.620;2023-06-22T05:42:38;7.70;;;4.50;;
22388;SDS011;11362;48.102;11.620;2023-06-22T05:45:03;4.73;;;4.33;;
22388;SDS011;11362;48.102;11.620;2023-06-22T05:47:29;4.37;;;3.97;;
22388;SDS011;11362;48.102;11.620;2023-06-22T05:49:55;4.50;;;4.10;;
22388;SDS011;11362;48.102;11.620;2023-06-22T05:52:20;6.10;;;4.33;;
22388;SDS011;11362;48.102;11.620;2023-06-22T05:54:45;5.13;;;4.60;;
22388;SDS011;11362;48.102;11.620;2023-06-22T05:57:10;5.73;;;4.47;;
22388;SDS011;11362;48.102;11.620;2023-06-22T05:59:36;8.07;;;4.20;;
22388;SDS011;11362;48.102;11.620;2023-06-22T06:02:01;5.43;;;3.93;;
22388;SDS011;11362;48.102;11.620;2023-06-22T06:04:26;5.53;;;4.47;;
22388;SDS011;11362;48.102;11.620;2023-06-22T06:06:52;5.20;;;3.77;;
22388;SDS011;11362;48.102;11.620;2023-06-22T06:09:17;4.90;;;4.40;;
22388;SDS011;11362;48.102;11.620;2023-06-22T06:11:42;5.83;;;3.97;;
22388;SDS011;11362;48.102;11.620;2023-06-22T06:14:07;6.30;;;4.50;;
22388;SDS011;11362;48.102;11.620;2023-06-22T06:16:33;5.33;;;4.80;;
22388;SDS011;11362;48.102;11.620;2023-06-22T06:18:58;6.07;;;4.63;;
22388;SDS011;11362;48.102;11.620;2023-06-22T06:21:24;4.57;;;4.10;;
22388;SDS011;11362;48.102;11.620;2023-06-22T06:23:49;5.93;;;4.63;;
22388;SDS011;11362;48.102;11.620;2023-06-22T06:26:14;5.60;;;4.53;;
22388;SDS011;11362;48.102;11.620;2023-06-22T06:28:40;4.90;;;4.33;;
22388;SDS011;11362;48.102;11.620;2023-06-22T06:31:05;6.00;;;4.20;;
22388;SDS011;11362;48.102;11.620;2023-06-22T06:33:30;5.57;;;4.53;;
22388;SDS011;11362;48.102;11.620;2023-06-22T06:35:56;4.83;;;4.30;;
22388;SDS011;11362;48.102;11.620;2023-06-22T06:38:21;5.33;;;4.20;;
22388;SDS011;11362;48.102;11.620;2023-06-22T06:40:46;4.50;;;4.10;;
22388;SDS011;11362;48.102;11.620;2023-06-22T06:43:11;5.27;;;4.40;;
22388;SDS011;11362;48.102;11.620;2023-06-22T06:45:37;7.40;;;4.77;;
22388;SDS011;11362;48.102;11.620;2023-06-22T06:48:02;5.10;;;4.03;;
22388;SDS011;11362;48.102;11.620;2023-06-22T06:50:27;6.60;;;4.20;;
22388;SDS011;11362;48.102;11.620;2023-06-22T06:52:53;5.00;;;4.60;;
22388;SDS011;11362;48.102;11.620;2023-06-22T06:55:18;7.10;;;4.63;;
22388;SDS011;11362;48.102;11.620;2023-06-22T06:57:44;4.93;;;4.43;;
22388;SDS011;11362;48.102;11.620;2023-06-22T07:00:12;6.67;;;4.57;;
22388;SDS011;11362;48.102;11.620;2023-06-22T07:02:38;4.93;;;4.50;;
22388;SDS011;11362;48.102;11.620;2023-06-22T07:05:08;6.40;;;4.30;;
22388;SDS011;11362;48.102;11.620;2023-06-22T07:07:34;7.30;;;4.70;;
22388;SDS011;11362;48.102;11.620;2023-06-22T07:09:59;6.23;;;4.20;;
22388;SDS011;11362;48.102;11.620;2023-06-22T07:12:25;5.80;;;5.27;;
22388;SDS011;11362;48.102;11.620;2023-06-22T07:14:51;6.90;;;4.67;;
22388;SDS011;11362;48.102;11.620;2023-06-22T07:17:17;5.43;;;4.40;;
22388;SDS011;11362;48.102;11.620;2023-06-22T07:19:42;4.80;;;4.30;;
22388;SDS011;11362;48.102;11.620;2023-06-22T07:22:07;8.17;;;4.27;;
22388;SDS011;11362;48.102;11.620;2023-06-22T07:24:33;6.43;;;4.70;;
22388;SDS011;11362;48.102;11.620;2023-06-22T07:26:58;7.40;;;4.60;;
22388;SDS011;11362;48.102;11.620;2023-06-22T07:29:24;5.20;;;4.40;;
22388;SDS011;11362;48.102;11.620;2023-06-22T07:31:50;6.50;;;5.13;;
22388;SDS011;11362;48.102;11.620;2023-06-22T07:34:17;7.33;;;4.33;;
22388;SDS011;11362;48.102;11.620;2023-06-22T07:36:43;8.77;;;4.43;;
22388;SDS011;11362;48.102;11.620;2023-06-22T07:39:08;5.67;;;4.23;;
22388;SDS011;11362;48.102;11.620;2023-06-22T07:41:34;6.47;;;4.63;;
22388;SDS011;11362;48.102;11.620;2023-06-22T07:43:59;5.80;;;4.60;;
22388;SDS011;11362;48.102;11.620;2023-06-22T07:46:24;4.80;;;4.37;;
22388;SDS011;11362;48.102;11.620;2023-06-22T07:48:50;5.77;;;5.23;;
22388;SDS011;11362;48.102;11.620;2023-06-22T07:51:15;6.10;;;5.03;;
22388;SDS011;11362;48.102;11.620;2023-06-22T07:53:41;7.57;;;4.40;;
22388;SDS011;11362;48.102;11.620;2023-06-22T07:56:07;4.73;;;4.23;;
22388;SDS011;11362;48.102;11.620;2023-06-22T07:58:35;6.83;;;5.07;;
22388;SDS011;11362;48.102;11.620;2023-06-22T08:01:01;5.43;;;4.53;;
22388;SDS011;11362;48.102;11.620;2023-06-22T08:03:26;4.80;;;4.40;;
22388;SDS011;11362;48.102;11.620;2023-06-22T08:05:51;4.73;;;4.33;;
22388;SDS011;11362;48.102;11.620;2023-06-22T08:08:17;5.77;;;4.80;;
22388;SDS011;11362;48.102;11.620;2023-06-22T08:10:42;6.07;;;4.87;;
22388;SDS011;11362;48.102;11.620;2023-06-22T08:13:08;5.00;;;4.60;;
22388;SDS011;11362;48.102;11.620;2023-06-22T08:15:33;5.87;;;4.87;;
22388;SDS011;11362;48.102;11.620;2023-06-22T08:17:58;5.30;;;4.30;;
22388;SDS011;11362;48.102;11.620;2023-06-22T08:20:24;4.43;;;4.13;;
22388;SDS011;11362;48.102;11.620;2023-06-22T08:22:49;6.50;;;4.47;;
22388;SDS011;11362;48.102;11.620;2023-06-22T08:25:14;5.73;;;4.77;;
22388;SDS011;11362;48.102;11.620;2023-06-22T08:27:40;5.07;;;4.33;;
22388;SDS011;11362;48.102;11.620;2023-06-22T08:30:06;5.10;;;4.60;;
22388;SDS011;11362;48.102;11.620;2023-06-22T08:32:32;5.33;;;4.50;;
22388;SDS011;11362;48.102;11.620;2023-06-22T08:34:57;5.37;;;4.87;;
22388;SDS011;11362;48.102;11.620;2023-06-22T08:37:23;7.43;;;4.70;;
22388;SDS011;11362;48.102;11.620;2023-06-22T08:39:48;5.53;;;4.63;;
22388;SDS011;11362;48.102;11.620;2023-06-22T08:42:13;4.93;;;3.87;;
22388;SDS011;11362;48.102;11.620;2023-06-22T08:44:39;5.93;;;4.80;;
22388;SDS011;11362;48.102;11.620;2023-06-22T08:47:04;4.83;;;4.43;;
22388;SDS011;11362;48.102;11.620;2023-06-22T08:49:29;5.00;;;4.53;;
22388;SDS011;11362;48.102;11.620;2023-06-22T08:51:55;7.43;;;5.23;;
22388;SDS011;11362;48.102;11.620;2023-06-22T08:54:20;5.87;;;4.97;;
22388;SDS011;11362;48.102;11.620;2023-06-22T08:56:45;6.90;;;4.87;;
22388;SDS011;11362;48.102;11.620;2023-06-22T08:59:10;7.37;;;4.93;;
22388;SDS011;11362;48.102;11.620;2023-06-22T09:01:36;7.13;;;5.33;;
22388;SDS011;11362;48.102;11.620;2023-06-22T09:04:01;8.20;;;5.37;;
22388;SDS011;11362;48.102;11.620;2023-06-22T09:06:26;5.40;;;4.90;;
22388;SDS011;11362;48.102;11.620;2023-06-22T09:08:52;5.77;;;4.53;;
22388;SDS011;11362;48.102;11.620;2023-06-22T09:11:17;7.30;;;5.13;;
22388;SDS011;11362;48.102;11.620;2023-06-22T09:13:42;6.47;;;4.90;;
22388;SDS011;11362;48.102;11.620;2023-06-22T09:16:07;4.90;;;4.50;;
22388;SDS011;11362;48.102;11.620;2023-06-22T09:18:36;8.00;;;5.40;;
22388;SDS011;11362;48.102;11.620;2023-06-22T09:21:01;5.53;;;5.03;;
22388;SDS011;11362;48.102;11.620;2023-06-22T09:23:27;6.00;;;5.07;;
22388;SDS011;11362;48.102;11.620;2023-06-22T09:25:52;6.17;;;4.73;;
22388;SDS011;11362;48.102;11.620;2023-06-22T09:28:18;5.40;;;4.90;;
22388;SDS011;11362;48.102;11.620;2023-06-22T09:30:43;9.93;;;5.33;;
22388;SDS011;11362;48.102;11.620;2023-06-22T09:33:08;11.27;;;5.03;;
22388;SDS011;11362;48.102;11.620;2023-06-22T09:35:34;5.80;;;4.87;;
22388;SDS011;11362;48.102;11.620;2023-06-22T09:37:59;5.77;;;5.00;;
22388;SDS011;11362;48.102;11.620;2023-06-22T09:40:24;5.50;;;4.83;;
22388;SDS011;11362;48.102;11.620;2023-06-22T09:42:51;6.77;;;4.87;;
22388;SDS011;11362;48.102;11.620;2023-06-22T09:45:16;5.70;;;4.77;;
22388;SDS011;11362;48.102;11.620;2023-06-22T09:47:41;7.47;;;5.37;;
22388;SDS011;11362;48.102;11.620;2023-06-22T09:50:07;5.57;;;4.80;;
22388;SDS011;11362;48.102;11.620;2023-06-22T09:52:32;7.27;;;4.63;;
22388;SDS011;11362;48.102;11.620;2023-06-22T09:54:57;9.27;;;5.00;;
22388;SDS011;11362;48.102;11.620;2023-06-22T09:57:23;9.13;;;5.40;;
22388;SDS011;11362;48.102;11.620;2023-06-22T09:59:48;6.33;;;5.10;;
22388;SDS011;11362;48.102;11.620;2023-06-22T10:02:13;8.30;;;5.10;;
22388;SDS011;11362;48.102;11.620;2023-06-22T10:04:38;6.23;;;5.43;;
22388;SDS011;11362;48.102;11.620;2023-06-22T10:07:04;7.33;;;5.27;;
22388;SDS011;11362;48.102;11.620;2023-06-22T10:09:29;6.93;;;5.47;;
22388;SDS011;11362;48.102;11.620;2023-06-22T10:11:55;5.97;;;4.70;;
22388;SDS011;11362;48.102;11.620;2023-06-22T10:14:20;7.87;;;5.07;;
22388;SDS011;11362;48.102;11.620;2023-06-22T10:16:45;5.67;;;5.00;;
22388;SDS011;11362;48.102;11.620;2023-06-22T10:19:11;5.53;;;4.40;;
22388;SDS011;11362;48.102;11.620;2023-06-22T10:21:36;6.30;;;5.33;;
22388;SDS011;11362;48.102;11.620;2023-06-22T10:24:02;8.07;;;5.03;;
22388;SDS011;11362;48.102;11.620;2023-06-22T10:26:27;6.37;;;5.00;;
22388;SDS011;11362;48.102;11.620;2023-06-22T10:28:52;6.97;;;5.47;;
22388;SDS011;11362;48.102;11.620;2023-06-22T10:31:18;9.17;;;5.33;;
22388;SDS011;11362;48.102;11.620;2023-06-22T10:33:43;5.43;;;4.63;;
22388;SDS011;11362;48.102;11.620;2023-06-22T10:36:08;7.83;;;5.03;;
22388;SDS011;11362;48.102;11.620;2023-06-22T10:38:34;5.30;;;4.90;;
22388;SDS011;11362;48.102;11.620;2023-06-22T10:40:59;7.20;;;4.93;;
22388;SDS011;11362;48.102;11.620;2023-06-22T10:43:24;6.47;;;4.80;;
22388;SDS011;11362;48.102;11.620;2023-06-22T10:45:49;7.87;;;6.10;;
22388;SDS011;11362;48.102;11.620;2023-06-22T10:48:15;7.67;;;5.27;;
22388;SDS011;11362;48.102;11.620;2023-06-22T10:50:40;6.53;;;4.87;;
22388;SDS011;11362;48.102;11.620;2023-06-22T10:53:05;6.80;;;5.13;;
22388;SDS011;11362;48.102;11.620;2023-06-22T10:55:31;6.47;;;5.40;;
22388;SDS011;11362;48.102;11.620;2023-06-22T10:57:56;5.90;;;5.23;;
22388;SDS011;11362;48.102;11.620;2023-06-22T11:00:21;6.93;;;5.10;;
22388;SDS011;11362;48.102;11.620;2023-06-22T11:02:46;7.30;;;5.23;;
22388;SDS011;11362;48.102;11.620;2023-06-22T11:05:12;6.53;;;5.37;;
22388;SDS011;11362;48.102;11.620;2023-06-22T11:07:37;6.20;;;5.37;;
22388;SDS011;11362;48.102;11.620;2023-06-22T11:10:06;6.70;;;4.60;;
22388;SDS011;11362;48.102;11.620;2023-06-22T11:12:32;6.10;;;4.87;;
22388;SDS011;11362;48.102;11.620;2023-06-22T11:14:57;6.87;;;4.57;;
22388;SDS011;11362;48.102;11.620;2023-06-22T11:17:23;6.87;;;4.93;;
22388;SDS011;11362;48.102;11.620;2023-06-22T11:19:48;5.20;;;4.57;;
22388;SDS011;11362;48.102;11.620;2023-06-22T11:22:13;5.03;;;4.63;;
22388;SDS011;11362;48.102;11.620;2023-06-22T11:24:38;6.00;;;5.40;;
22388;SDS011;11362;48.102;11.620;2023-06-22T11:27:04;5.43;;;4.87;;
22388;SDS011;11362;48.102;11.620;2023-06-22T11:29:29;6.03;;;5.27;;
22388;SDS011;11362;48.102;11.620;2023-06-22T11:31:55;7.43;;;4.87;;
22388;SDS011;11362;48.102;11.620;2023-06-22T11:34:20;6.53;;;5.10;;
22388;SDS011;11362;48.102;11.620;2023-06-22T11:36:45;5.73;;;5.13;;
22388;SDS011;11362;48.102;11.620;2023-06-22T11:39:10;7.37;;;4.43;;
22388;SDS011;11362;48.102;11.620;2023-06-22T11:41:36;7.93;;;5.23;;
22388;SDS011;11362;48.102;11.620;2023-06-22T11:44:01;5.93;;;5.00;;
22388;SDS011;11362;48.102;11.620;2023-06-22T11:46:26;6.33;;;5.47;;
22388;SDS011;11362;48.102;11.620;2023-06-22T11:48:52;6.23;;;5.17;;
22388;SDS011;11362;48.102;11.620;2023-06-22T11:51:17;5.80;;;5.20;;
22388;SDS011;11362;48.102;11.620;2023-06-22T11:53:42;8.23;;;5.07;;
22388;SDS011;11362;48.102;11.620;2023-06-22T11:56:08;7.07;;;5.20;;
22388;SDS011;11362;48.102;11.620;2023-06-22T11:58:33;6.47;;;4.97;;
22388;SDS011;11362;48.102;11.620;2023-06-22T12:00:58;6.67;;;4.80;;
22388;SDS011;11362;48.102;11.620;2023-06-22T12:03:24;8.03;;;5.60;;
22388;SDS011;11362;48.102;11.620;2023-06-22T12:05:49;9.73;;;5.93;;
22388;SDS011;11362;48.102;11.620;2023-06-22T12:08:15;6.93;;;5.33;;
22388;SDS011;11362;48.102;11.620;2023-06-22T12:10:41;6.20;;;4.80;;
22388;SDS011;11362;48.102;11.620;2023-06-22T12:13:06;6.43;;;4.87;;
22388;SDS011;11362;48.102;11.620;2023-06-22T12:15:31;8.70;;;5.27;;
22388;SDS011;11362;48.102;11.620;2023-06-22T12:17:56;7.87;;;5.10;;
22388;SDS011;11362;48.102;11.620;2023-06-22T12:20:22;5.50;;;5.00;;
22388;SDS011;11362;48.102;11.620;2023-06-22T12:22:47;5.30;;;4.83;;
22388;SDS011;11362;48.102;11.620;2023-06-22T12:25:12;5.43;;;4.87;;
22388;SDS011;11362;48.102;11.620;2023-06-22T12:27:38;7.43;;;5.10;;
22388;SDS011;11362;48.102;11.620;2023-06-22T12:30:03;6.60;;;4.60;;
22388;SDS011;11362;48.102;11.620;2023-06-22T12:32:29;5.50;;;4.60;;
22388;SDS011;11362;48.102;11.620;2023-06-22T12:34:54;5.70;;;4.87;;
22388;SDS011;11362;48.102;11.620;2023-06-22T12:37:20;5.90;;;4.90;;
22388;SDS011;11362;48.102;11.620;2023-06-22T12:39:46;6.37;;;4.87;;
22388;SDS011;11362;48.102;11.620;2023-06-22T12:42:11;6.57;;;5.37;;
22388;SDS011;11362;48.102;11.620;2023-06-22T12:44:37;8.93;;;5.33;;
22388;SDS011;11362;48.102;11.620;2023-06-22T12:47:03;5.43;;;4.80;;
22388;SDS011;11362;48.102;11.620;2023-06-22T12:49:29;5.40;;;4.83;;
22388;SDS011;11362;48.102;11.620;2023-06-22T12:51:54;6.07;;;4.80;;
22388;SDS011;11362;48.102;11.620;2023-06-22T12:54:19;10.17;;;5.53;;
22388;SDS011;11362;48.102;11.620;2023-06-22T12:56:45;7.30;;;5.07;;
22388;SDS011;11362;48.102;11.620;2023-06-22T12:59:10;6.00;;;4.70;;
22388;SDS011;11362;48.102;11.620;2023-06-22T13:01:36;6.10;;;4.97;;
22388;SDS011;11362;48.102;11.620;2023-06-22T13:04:01;6.87;;;5.03;;
22388;SDS011;11362;48.102;11.620;2023-06-22T13:06:26;6.47;;;4.93;;
22388;SDS011;11362;48.102;11.620;2023-06-22T13:08:52;8.27;;;5.67;;
22388;SDS011;11362;48.102;11.620;2023-06-22T13:11:17;7.03;;;5.53;;
22388;SDS011;11362;48.102;11.620;2023-06-22T13:13:43;5.23;;;4.63;;
22388;SDS011;11362;48.102;11.620;2023-06-22T13:16:09;6.03;;;4.47;;
22388;SDS011;11362;48.102;11.620;2023-06-22T13:18:35;7.13;;;5.00;;
22388;SDS011;11362;48.102;11.620;2023-06-22T13:21:00;7.43;;;5.03;;
22388;SDS011;11362;48.102;11.620;2023-06-22T13:23:25;5.23;;;4.50;;
22388;SDS011;11362;48.102;11.620;2023-06-22T13:25:51;5.40;;;4.53;;
22388;SDS011;11362;48.102;11.620;2023-06-22T13:28:16;8.97;;;5.47;;
22388;SDS011;11362;48.102;11.620;2023-06-22T13:30:42;7.00;;;4.63;;
22388;SDS011;11362;48.102;11.620;2023-06-22T13:33:08;6.77;;;5.60;;
22388;SDS011;11362;48.102;11.620;2023-06-22T13:35:33;4.63;;;3.93;;
22388;SDS011;11362;48.102;11.620;2023-06-22T13:37:59;6.43;;;4.80;;
22388;SDS011;11362;48.102;11.620;2023-06-22T13:40:24;7.33;;;5.50;;
22388;SDS011;11362;48.102;11.620;2023-06-22T13:42:50;7.23;;;5.37;;
22388;SDS011;11362;48.102;11.620;2023-06-22T13:45:15;7.60;;;5.30;;
22388;SDS011;11362;48.102;11.620;2023-06-22T13:47:41;7.83;;;5.20;;
22388;SDS011;11362;48.102;11.620;2023-06-22T13:50:06;5.47;;;4.97;;
22388;SDS011;11362;48.102;11.620;2023-06-22T13:52:32;7.10;;;5.00;;
22388;SDS011;11362;48.102;11.620;2023-06-22T13:54:57;7.40;;;5.50;;
22388;SDS011;11362;48.102;11.620;2023-06-22T13:57:22;6.30;;;5.17;;
22388;SDS011;11362;48.102;11.620;2023-06-22T13:59:47;7.53;;;4.87;;
22388;SDS011;11362;48.102;11.620;2023-06-22T14:02:13;8.17;;;5.10;;
22388;SDS011;11362;48.102;11.620;2023-06-22T14:04:38;7.37;;;5.30;;
22388;SDS011;11362;48.102;11.620;2023-06-22T14:07:03;7.47;;;5.23;;
22388;SDS011;11362;48.102;11.620;2023-06-22T14:09:29;7.87;;;4.97;;
22388;SDS011;11362;48.102;11.620;2023-06-22T14:11:54;8.77;;;5.13;;
22388;SDS011;11362;48.102;11.620;2023-06-22T14:14:20;6.07;;;5.17;;
22388;SDS011;11362;48.102;11.620;2023-06-22T14:16:45;6.80;;;5.07;;
22388;SDS011;11362;48.102;11.620;2023-06-22T14:19:11;6.80;;;5.10;;
22388;SDS011;11362;48.102;11.620;2023-06-22T14:21:36;6.93;;;4.80;;
22388;SDS011;11362;48.102;11.620;2023-06-22T14:24:01;7.33;;;5.53;;
22388;SDS011;11362;48.102;11.620;2023-06-22T14:26:27;6.23;;;5.33;;
22388;SDS011;11362;48.102;11.620;2023-06-22T14:28:52;6.20;;;5.03;;
22388;SDS011;11362;48.102;11.620;2023-06-22T14:31:18;4.93;;;4.43;;